Time;durP1;ratioP1;P1;durP2;ratioP2;P2;SDS_P1;SDS_P2;PMS_P1;PMS_P2;Temp;Humidity;BMP_temperature;BMP_pressure;BME280_temperature;BME280_humidity;BME280_pressure;Samples;Min_cycle;Max_cycle;Signal;HPM_P1;HPM_P2
2023/03/31 03:23:43;;;;;;;9.43;2.00;;;;;;;9.25;100.00;95410.06;6187489;23;20013;-88
2023/03/31 03:26:26;;;;;;;12.43;2.47;;;;;;;9.21;100.00;95403.53;6159999;23;20024;-88
2023/03/31 03:28:56;;;;;;;12.80;2.17;;;;;;;9.16;100.00;95384.88;6184298;23;20024;-89
2023/03/31 03:31:24;;;;;;;8.80;2.03;;;;;;;9.17;100.00;95366.34;6209547;23;20028;-88
2023/03/31 03:33:50;;;;;;;6.40;2.40;;;;;;;9.11;100.00;95361.78;6210515;23;20449;-88
2023/03/31 03:36:15;;;;;;;9.40;2.20;;;;;;;9.01;100.00;95355.94;6185424;23;20012;-88
2023/03/31 03:38:41;;;;;;;9.27;2.30;;;;;;;9.03;100.00;95346.09;6162195;23;20345;-88
2023/03/31 03:41:07;;;;;;;9.37;2.60;;;;;;;9.00;100.00;95333.31;6222843;23;20074;-88
2023/03/31 03:43:33;;;;;;;6.30;2.40;;;;;;;9.02;100.00;95320.88;6191256;23;20028;-88
2023/03/31 03:45:59;;;;;;;7.73;2.33;;;;;;;8.97;100.00;95308.25;6184823;23;20009;-88
2023/03/31 03:48:25;;;;;;;7.43;2.60;;;;;;;8.97;100.00;95296.94;6184340;23;20016;-89
2023/03/31 03:50:52;;;;;;;10.17;2.77;;;;;;;8.98;100.00;95283.66;6158785;23;20091;-88
2023/03/31 03:53:18;;;;;;;9.70;2.70;;;;;;;9.02;100.00;95280.69;6158493;23;20671;-88
2023/03/31 03:55:44;;;;;;;12.03;3.00;;;;;;;8.98;100.00;95272.34;6208770;23;20021;-89
2023/03/31 03:58:10;;;;;;;7.27;2.57;;;;;;;8.97;100.00;95283.84;6160167;23;20013;-89
2023/03/31 04:00:36;;;;;;;8.57;2.60;;;;;;;8.93;100.00;95275.50;6184122;23;20024;-88
2023/03/31 04:03:01;;;;;;;10.53;2.80;;;;;;;8.83;100.00;95279.34;6159702;23;20017;-88
2023/03/31 04:05:32;;;;;;;16.47;3.47;;;;;;;8.84;100.00;95273.09;6183684;23;20040;-88
2023/03/31 04:07:57;;;;;;;11.63;3.27;;;;;;;8.85;100.00;95266.84;6184586;23;20020;-88
2023/03/31 04:10:34;;;;;;;8.00;2.73;;;;;;;8.79;100.00;95257.88;6208017;23;20627;-89
2023/03/31 04:13:00;;;;;;;9.30;3.97;;;;;;;8.75;100.00;95264.44;6182785;23;20024;-88
2023/03/31 04:15:32;;;;;;;11.10;3.67;;;;;;;8.76;100.00;95252.19;6184809;23;20005;-89
2023/03/31 04:17:58;;;;;;;10.32;3.28;;;;;;;8.71;100.00;95250.88;6182058;23;20044;-89
2023/03/31 04:20:29;;;;;;;10.47;3.20;;;;;;;8.69;100.00;95242.38;6182580;23;20017;-88
2023/03/31 04:22:55;;;;;;;10.73;4.77;;;;;;;8.69;100.00;95247.63;6183006;23;20068;-89
2023/03/31 04:25:21;;;;;;;8.87;3.70;;;;;;;8.67;100.00;95233.03;6157781;23;20013;-88
2023/03/31 04:27:54;;;;;;;9.47;5.07;;;;;;;8.61;100.00;95234.53;6208303;23;20001;-88
2023/03/31 04:30:29;;;;;;;15.25;5.45;;;;;;;8.58;100.00;95234.88;6207899;23;20323;-89
2023/03/31 04:33:01;;;;;;;12.80;5.07;;;;;;;8.53;100.00;95221.47;6182731;23;20017;-89
2023/03/31 04:35:48;;;;;;;8.40;4.67;;;;;;;8.55;100.00;95218.69;6208286;23;20008;-89
2023/03/31 04:38:26;;;;;;;18.03;7.50;;;;;;;8.52;100.00;95198.06;6208752;23;20475;-88
2023/03/31 04:40:53;;;;;;;23.93;8.27;;;;;;;8.52;100.00;95209.38;6206603;23;20035;-89
2023/03/31 04:43:20;;;;;;;13.87;6.23;;;;;;;8.46;100.00;95202.19;6207729;23;20044;-89
2023/03/31 04:45:45;;;;;;;14.30;4.57;;;;;;;8.40;100.00;95202.88;6208281;23;20009;-89
2023/03/31 04:48:12;;;;;;;14.07;4.13;;;;;;;8.38;100.00;95195.16;6183638;23;20035;-89
2023/03/31 04:50:39;;;;;;;7.37;3.20;;;;;;;8.35;100.00;95177.19;6208206;23;20009;-89
2023/03/31 04:53:05;;;;;;;19.10;8.90;;;;;;;8.40;100.00;95163.56;6182627;23;20017;-88
2023/03/31 04:55:31;;;;;;;34.07;16.83;;;;;;;8.31;100.00;95156.72;6181965;23;20017;-89
2023/03/31 04:57:57;;;;;;;14.93;8.33;;;;;;;8.31;100.00;95160.16;6183101;23;20068;-89
2023/03/31 05:00:23;;;;;;;9.17;2.90;;;;;;;8.31;100.00;95148.84;6182937;23;20016;-89
2023/03/31 05:02:50;;;;;;;12.13;4.00;;;;;;;8.29;100.00;95156.09;6208411;23;20005;-88
2023/03/31 05:05:16;;;;;;;8.80;2.33;;;;;;;8.22;100.00;95162.00;6181981;23;20017;-89
2023/03/31 05:07:46;;;;;;;16.70;4.57;;;;;;;8.26;100.00;95167.72;6158103;23;20470;-87
2023/03/31 05:10:16;;;;;;;16.53;4.30;;;;;;;8.26;100.00;95167.72;6182106;23;20127;-88
2023/03/31 05:13:00;;;;;;;16.03;5.20;;;;;;;8.20;100.00;95163.16;6206846;23;20013;-87
2023/03/31 05:15:43;;;;;;;15.10;4.53;;;;;;;8.19;100.00;95138.78;6157241;23;20032;-88
2023/03/31 05:18:09;;;;;;;21.02;5.88;;;;;;;8.17;100.00;95140.72;6158778;23;20009;-87
2023/03/31 05:20:40;;;;;;;14.83;5.93;;;;;;;8.21;100.00;95134.16;6212245;23;20005;-87
2023/03/31 05:23:06;;;;;;;10.37;3.30;;;;;;;8.12;100.00;95127.34;6186612;23;20073;-87
2023/03/31 05:25:33;;;;;;;12.37;3.23;;;;;;;8.20;100.00;95131.72;6215312;23;20017;-87
2023/03/31 05:27:59;;;;;;;10.97;3.30;;;;;;;8.22;100.00;95129.75;6191010;23;20025;-86
2023/03/31 05:30:26;;;;;;;10.63;3.70;;;;;;;8.21;100.00;95107.16;6197772;23;20040;-87
2023/03/31 05:32:52;;;;;;;7.47;3.33;;;;;;;8.26;100.00;95118.75;6157485;23;20043;-86
2023/03/31 05:35:18;;;;;;;11.63;3.90;;;;;;;8.31;100.00;95112.19;6182294;23;20031;-87
2023/03/31 05:37:48;;;;;;;13.23;3.27;;;;;;;8.26;100.00;95110.09;6181860;23;20408;-86
2023/03/31 05:40:18;;;;;;;11.43;3.37;;;;;;;8.29;100.00;95114.19;6206500;23;20103;-87
2023/03/31 05:42:43;;;;;;;11.93;4.03;;;;;;;8.31;100.00;95107.75;6180056;23;20023;-87
2023/03/31 05:45:09;;;;;;;10.47;3.97;;;;;;;8.39;100.00;95120.84;6181841;23;20013;-87
2023/03/31 05:47:35;;;;;;;12.20;3.80;;;;;;;8.39;100.00;95125.28;6157321;23;20008;-87
2023/03/31 05:50:07;;;;;;;9.30;4.10;;;;;;;8.43;100.00;95123.94;6182666;23;20020;-87
2023/03/31 05:52:33;;;;;;;10.53;5.10;;;;;;;8.37;100.00;95127.22;6184138;23;20063;-86
2023/03/31 05:54:59;;;;;;;13.70;5.43;;;;;;;8.41;100.00;95133.75;6184661;23;20004;-85
2023/03/31 05:57:25;;;;;;;15.20;4.73;;;;;;;8.39;100.00;95146.25;6183736;23;20075;-86
2023/03/31 05:59:50;;;;;;;10.87;4.97;;;;;;;8.42;100.00;95143.28;6210721;23;20039;-86
2023/03/31 06:02:17;;;;;;;10.13;4.17;;;;;;;8.42;100.00;95145.91;6182327;23;20229;-86
2023/03/31 06:04:43;;;;;;;10.13;4.57;;;;;;;8.40;100.00;95164.41;6206460;23;20017;-86
2023/03/31 06:07:09;;;;;;;13.63;4.93;;;;;;;8.40;100.00;95174.88;6157185;23;20024;-85
2023/03/31 06:09:38;;;;;;;13.50;5.13;;;;;;;8.38;100.00;95168.16;6183170;23;20051;-85
2023/03/31 06:12:04;;;;;;;12.23;5.53;;;;;;;8.40;100.00;95163.56;6182676;23;20070;-86
2023/03/31 06:14:30;;;;;;;15.03;5.83;;;;;;;8.44;100.00;95157.00;6209116;23;20008;-86
2023/03/31 06:16:56;;;;;;;13.30;5.40;;;;;;;8.43;100.00;95163.25;6180096;23;20052;-86
2023/03/31 06:19:21;;;;;;;17.50;6.00;;;;;;;8.43;100.00;95160.63;6180416;23;20017;-86
2023/03/31 06:21:47;;;;;;;12.97;5.67;;;;;;;8.45;100.00;95150.75;6177391;23;20711;-86
2023/03/31 06:24:12;;;;;;;13.43;4.93;;;;;;;8.52;100.00;95156.13;6153764;23;20123;-86
2023/03/31 06:26:38;;;;;;;17.23;5.57;;;;;;;8.50;100.00;95158.94;6176255;23;20009;-86
2023/03/31 06:29:04;;;;;;;15.17;6.03;;;;;;;8.49;100.00;95141.59;6203315;23;20035;-86
2023/03/31 06:31:30;;;;;;;14.93;5.43;;;;;;;8.48;100.00;95135.53;6203030;23;20507;-86
2023/03/31 06:33:55;;;;;;;12.97;5.80;;;;;;;8.50;100.00;95127.50;6178555;23;20097;-86
2023/03/31 06:36:21;;;;;;;15.53;7.13;;;;;;;8.57;100.00;95117.94;6177687;23;20009;-86
2023/03/31 06:38:48;;;;;;;17.67;8.40;;;;;;;8.48;100.00;95103.25;6202254;23;20013;-86
2023/03/31 06:41:16;;;;;;;13.03;6.80;;;;;;;8.44;100.00;95094.13;6176734;23;20017;-86
2023/03/31 06:43:41;;;;;;;13.73;6.60;;;;;;;8.40;100.00;95092.84;6177887;23;20085;-86
2023/03/31 06:46:07;;;;;;;15.33;6.70;;;;;;;8.37;100.00;95080.88;6200418;23;20012;-86
2023/03/31 06:48:33;;;;;;;13.93;6.60;;;;;;;8.29;100.00;95086.19;6178044;23;20013;-85
2023/03/31 06:51:01;;;;;;;17.90;6.37;;;;;;;8.31;100.00;95083.38;6180081;23;20055;-87
2023/03/31 06:53:28;;;;;;;13.33;6.40;;;;;;;8.26;100.00;95079.47;6206904;23;20008;-87
2023/03/31 06:55:54;;;;;;;16.00;7.00;;;;;;;8.29;100.00;95067.03;6182386;23;20030;-87
2023/03/31 06:58:20;;;;;;;19.03;7.23;;;;;;;8.34;100.00;95059.44;6183682;23;20005;-87
2023/03/31 07:00:46;;;;;;;13.80;6.90;;;;;;;8.42;100.00;95059.44;6181921;23;20017;-87
2023/03/31 07:03:12;;;;;;;11.50;6.40;;;;;;;8.40;100.00;95054.38;6181015;23;20028;-87
2023/03/31 07:05:39;;;;;;;14.57;6.70;;;;;;;8.46;100.00;95051.06;6180550;23;20009;-87
2023/03/31 07:08:05;;;;;;;12.93;5.80;;;;;;;8.45;100.00;95046.81;6181502;23;20095;-87
2023/03/31 07:10:32;;;;;;;15.37;7.57;;;;;;;8.49;100.00;95047.28;6181993;23;20091;-87
2023/03/31 07:12:58;;;;;;;13.67;7.63;;;;;;;8.52;100.00;95035.59;6182499;23;20013;-86
2023/03/31 07:15:25;;;;;;;11.63;6.37;;;;;;;8.48;100.00;95035.13;6188698;23;20068;-86
2023/03/31 07:18:11;;;;;;;11.50;6.63;;;;;;;8.51;100.00;95040.03;6217279;23;20033;-87
2023/03/31 07:20:37;;;;;;;14.17;6.30;;;;;;;8.55;100.00;95049.19;6181204;23;20076;-85
2023/03/31 07:23:04;;;;;;;13.13;6.47;;;;;;;8.57;100.00;95065.53;6179411;23;20414;-86
2023/03/31 07:25:30;;;;;;;15.40;6.13;;;;;;;8.50;100.00;95077.72;6180339;23;20092;-86
2023/03/31 07:27:56;;;;;;;19.07;6.80;;;;;;;8.50;100.00;95088.19;6204027;23;20041;-86
2023/03/31 07:30:28;;;;;;;15.87;7.30;;;;;;;8.55;100.00;95093.75;6204824;23;20013;-86
2023/03/31 07:32:54;;;;;;;15.25;7.18;;;;;;;8.55;100.00;95085.88;6204711;23;20859;-85
2023/03/31 07:35:21;;;;;;;11.43;5.67;;;;;;;8.66;100.00;95121.34;6204857;23;20056;-86
2023/03/31 07:37:49;;;;;;;15.63;6.87;;;;;;;8.49;100.00;95131.94;6179828;23;20016;-85
2023/03/31 07:40:18;;;;;;;12.10;6.67;;;;;;;8.55;100.00;95176.75;6179322;23;20039;-86
2023/03/31 07:42:45;;;;;;;10.97;5.47;;;;;;;8.52;100.00;95164.84;6180278;23;20040;-86
2023/03/31 07:45:15;;;;;;;13.93;4.10;;;;;;;8.51;100.00;95160.56;6204363;23;19998;-85
2023/03/31 07:47:42;;;;;;;9.73;3.67;;;;;;;8.55;100.00;95158.41;6181278;23;20009;-86
2023/03/31 07:50:08;;;;;;;8.50;3.43;;;;;;;8.62;100.00;95157.56;6190934;23;20013;-86
2023/03/31 07:52:46;;;;;;;6.13;2.67;;;;;;;8.61;100.00;95113.97;6189807;23;20021;-86
2023/03/31 07:55:12;;;;;;;8.43;2.60;;;;;;;8.65;100.00;95078.59;6206602;23;20013;-86
2023/03/31 07:57:39;;;;;;;9.60;2.60;;;;;;;8.88;100.00;95041.03;6206570;23;20021;-85
2023/03/31 08:00:11;;;;;;;5.80;2.40;;;;;;;8.98;100.00;95002.25;6181694;23;20429;-86
2023/03/31 08:02:41;;;;;;;8.30;3.27;;;;;;;9.08;100.00;94999.38;6180794;23;20104;-85
2023/03/31 08:05:08;;;;;;;8.13;2.87;;;;;;;9.05;100.00;94984.00;6206489;23;20021;-86
2023/03/31 08:07:35;;;;;;;6.20;2.50;;;;;;;9.10;100.00;94994.78;6181192;23;20017;-87
2023/03/31 08:10:04;;;;;;;7.23;2.60;;;;;;;9.31;100.00;95001.91;6181971;23;20013;-86
2023/03/31 08:12:30;;;;;;;7.00;2.57;;;;;;;9.52;100.00;95004.59;6181612;23;20148;-87
2023/03/31 08:14:55;;;;;;;4.53;2.40;;;;;;;9.63;100.00;95000.72;6193358;23;20005;-87
2023/03/31 08:17:25;;;;;;;6.23;2.07;;;;;;;9.71;100.00;94997.19;6193171;23;20095;-86
2023/03/31 08:19:51;;;;;;;5.13;2.00;;;;;;;9.70;100.00;94982.44;6181168;23;20021;-87
2023/03/31 08:22:16;;;;;;;5.57;1.77;;;;;;;9.71;100.00;94991.94;6156312;23;20005;-86
2023/03/31 08:24:42;;;;;;;6.00;1.87;;;;;;;9.58;100.00;94984.69;6181462;23;20354;-86
2023/03/31 08:27:08;;;;;;;6.33;1.50;;;;;;;9.71;100.00;94990.09;6182060;23;20063;-86
2023/03/31 08:29:33;;;;;;;6.10;1.93;;;;;;;9.90;100.00;94978.22;6181413;23;20063;-87
2023/03/31 08:31:59;;;;;;;3.63;1.57;;;;;;;9.88;100.00;94982.81;6181063;23;20456;-86
2023/03/31 08:34:25;;;;;;;7.37;2.17;;;;;;;9.71;100.00;94963.06;6206291;23;20008;-86
2023/03/31 08:36:51;;;;;;;5.43;1.67;;;;;;;9.83;100.00;94964.22;6181838;23;20009;-86
2023/03/31 08:39:17;;;;;;;2.87;1.30;;;;;;;10.06;100.00;94951.72;6182116;23;20448;-85
2023/03/31 08:42:00;;;;;;;3.37;1.30;;;;;;;10.07;100.00;94960.41;6181047;23;20009;-87
2023/03/31 08:44:52;;;;;;;2.17;1.15;;;;;;;10.61;100.00;94952.00;6181373;23;20591;-87
2023/03/31 08:47:25;;;;;;;3.97;1.57;;;;;;;10.28;100.00;94954.38;6181660;23;20040;-87
2023/03/31 08:49:59;;;;;;;3.45;1.45;;;;;;;11.24;100.00;94944.94;6210921;23;20013;-87
2023/03/31 08:52:43;;;;;;;3.20;1.47;;;;;;;11.92;100.00;94929.19;6209304;23;20526;-86
2023/03/31 08:55:21;;;;;;;4.63;1.20;;;;;;;13.07;100.00;94926.34;6207427;23;20019;-86
2023/03/31 08:58:08;;;;;;;4.10;1.53;;;;;;;13.42;100.00;94919.78;6182504;23;20013;-86
2023/03/31 09:00:51;;;;;;;3.80;1.67;;;;;;;13.93;100.00;94912.03;6183864;23;20012;-86
2023/03/31 09:03:26;;;;;;;4.47;1.75;;;;;;;14.08;100.00;94917.84;6221120;23;20044;-86
2023/03/31 09:06:08;;;;;;;3.03;1.40;;;;;;;14.09;100.00;94908.91;6188470;23;20009;-86
2023/03/31 09:08:33;;;;;;;3.67;1.03;;;;;;;14.35;100.00;94916.66;6178765;23;20100;-86
2023/03/31 09:11:31;;;;;;;3.97;1.20;;;;;;;14.44;100.00;94913.72;6155207;23;20040;-87
2023/03/31 09:14:22;;;;;;;4.53;1.40;;;;;;;15.07;100.00;94908.31;6141825;23;20013;-85
2023/03/31 09:16:51;;;;;;;4.20;1.40;;;;;;;15.60;100.00;94894.47;6166061;23;20020;-86
2023/03/31 09:19:36;;;;;;;4.30;1.65;;;;;;;15.22;100.00;94900.00;6153979;23;20147;-86
2023/03/31 09:22:05;;;;;;;2.90;1.20;;;;;;;15.20;100.00;94902.88;6180744;23;20492;-86
2023/03/31 09:24:42;;;;;;;4.28;1.40;;;;;;;16.04;100.00;94897.78;6180903;23;20016;-86
2023/03/31 09:27:13;;;;;;;2.83;1.25;;;;;;;15.59;100.00;94910.56;6179979;23;20050;-86
2023/03/31 09:29:51;;;;;;;3.20;1.10;;;;;;;15.97;100.00;94897.06;6180417;23;20112;-87
2023/03/31 09:32:23;;;;;;;3.53;1.33;;;;;;;15.50;100.00;94896.84;6205291;23;20735;-86
2023/03/31 09:34:57;;;;;;;3.10;1.20;;;;;;;15.48;100.00;94888.28;6180669;23;20016;-86
2023/03/31 09:37:29;;;;;;;5.70;1.30;;;;;;;15.64;100.00;94879.72;6180164;23;20095;-86
2023/03/31 09:39:57;;;;;;;4.50;1.30;;;;;;;15.57;100.00;94881.66;6183874;23;20017;-86
2023/03/31 09:42:22;;;;;;;5.40;1.60;;;;;;;15.72;100.00;94882.09;6179002;23;20104;-87
2023/03/31 09:44:51;;;;;;;3.80;1.27;;;;;;;16.72;100.00;94881.41;6180098;23;20063;-87
2023/03/31 09:47:41;;;;;;;4.03;1.05;;;;;;;16.58;100.00;94881.88;6205458;23;20019;-87
2023/03/31 09:50:08;;;;;;;4.75;1.00;;;;;;;17.00;100.00;94868.50;6205507;23;20108;-87
2023/03/31 09:52:39;;;;;;;2.40;1.00;;;;;;;16.21;100.00;94866.91;6205590;23;20023;-87
2023/03/31 09:55:17;;;;;;;4.70;1.20;;;;;;;17.06;100.00;94854.28;6180202;23;20342;-87
2023/03/31 09:57:44;;;;;;;3.90;0.98;;;;;;;16.25;100.00;94860.13;6206627;23;20012;-87
2023/03/31 10:00:21;;;;;;;5.32;1.20;;;;;;;16.31;100.00;94868.22;6180515;23;20067;-86
2023/03/31 10:02:50;;;;;;;3.38;1.00;;;;;;;15.93;100.00;94869.41;6180610;23;20437;-87
2023/03/31 10:05:50;;;;;;;3.85;1.00;;;;;;;16.14;100.00;94871.53;6180341;23;20009;-87
2023/03/31 10:08:15;;;;;;;9.38;0.90;;;;;;;17.01;100.00;94867.47;6164355;23;20024;-87
2023/03/31 10:10:51;;;;;;;2.72;0.80;;;;;;;17.46;100.00;94856.16;6155701;23;20009;-87
2023/03/31 10:13:41;;;;;;;2.97;0.95;;;;;;;16.19;100.00;94863.69;6155414;23;20713;-87
2023/03/31 10:16:12;;;;;;;5.28;1.40;;;;;;;15.31;100.00;94857.09;6155698;23;20008;-87
2023/03/31 10:18:40;;;;;;;7.55;1.45;;;;;;;15.22;100.00;94854.97;6156191;23;20404;-87
2023/03/31 10:21:22;;;;;;;3.55;1.05;;;;;;;15.29;100.00;94851.25;6180603;23;20001;-87
2023/03/31 10:23:49;;;;;;;7.30;1.00;;;;;;;15.98;100.00;94843.81;6182246;23;20071;-86
2023/03/31 10:26:21;;;;;;;4.28;1.23;;;;;;;15.18;100.00;94836.06;6180340;23;20108;-86
2023/03/31 10:28:54;;;;;;;5.77;1.43;;;;;;;15.41;100.00;94826.63;6206021;23;20108;-87
2023/03/31 10:31:25;;;;;;;4.32;1.20;;;;;;;15.46;100.00;94826.75;6154535;23;20053;-87
2023/03/31 10:33:52;;;;;;;3.45;1.48;;;;;;;15.54;100.00;94827.28;6180199;23;20045;-86
2023/03/31 10:36:25;;;;;;;1.65;0.77;;;;;;;16.48;100.00;94832.00;6179282;23;20048;-87
2023/03/31 10:38:56;;;;;;;2.75;0.95;;;;;;;17.16;100.00;94835.91;6180839;23;20021;-86
2023/03/31 10:41:29;;;;;;;3.88;0.88;;;;;;;17.29;100.00;94811.72;6179611;23;20024;-86
2023/03/31 10:44:01;;;;;;;2.08;0.80;;;;;;;17.14;100.00;94814.91;6181207;23;20479;-86
2023/03/31 10:46:46;;;;;;;3.83;1.02;;;;;;;17.71;100.00;94810.66;6207550;23;20009;-86
2023/03/31 10:49:24;;;;;;;3.10;0.80;;;;;;;17.71;100.00;94805.34;6184523;23;20012;-87
2023/03/31 10:51:56;;;;;;;4.78;0.90;;;;;;;17.64;100.00;94795.66;6191984;23;20013;-86
2023/03/31 10:54:25;;;;;;;4.38;1.23;;;;;;;17.58;100.00;94801.94;6179976;23;20016;-87
2023/03/31 10:56:53;;;;;;;5.82;0.93;;;;;;;17.76;100.00;94797.44;6179795;23;20064;-87
2023/03/31 10:59:57;;;;;;;5.38;1.55;;;;;;;18.49;100.00;94790.41;6179978;23;20040;-87
2023/03/31 11:02:48;;;;;;;3.45;1.33;;;;;;;17.87;100.00;94802.75;6206483;23;20013;-87
2023/03/31 11:05:26;;;;;;;4.90;1.13;;;;;;;18.02;100.00;94770.28;6204617;23;20024;-87
2023/03/31 11:08:18;;;;;;;5.72;1.20;;;;;;;17.83;100.00;94771.53;6154600;23;20020;-87
2023/03/31 11:14:15;;;;;;;6.97;1.30;;;;;;;17.79;100.00;94749.94;6179465;23;20052;-88
2023/03/31 11:16:53;;;;;;;6.22;1.45;;;;;;;17.46;100.00;94758.63;6204970;23;20017;-88
2023/03/31 11:19:27;;;;;;;5.70;1.25;;;;;;;17.10;100.00;94752.66;6179765;23;20052;-88
2023/03/31 11:22:20;;;;;;;4.88;1.05;;;;;;;17.28;100.00;94754.31;6203627;23;20088;-87
2023/03/31 11:25:30;;;;;;;6.30;1.33;;;;;;;17.80;100.00;94748.88;6203996;23;20009;-88
2023/03/31 11:28:20;;;;;;;6.47;1.92;;;;;;;17.78;100.00;94743.03;6160489;23;20044;-88
2023/03/31 11:30:50;;;;;;;5.80;1.30;;;;;;;17.32;100.00;94738.72;6189991;23;20031;-88
2023/03/31 11:33:34;;;;;;;5.60;1.92;;;;;;;16.42;100.00;94724.94;6227490;23;20012;-88
2023/03/31 11:36:07;;;;;;;8.27;1.58;;;;;;;16.23;100.00;94721.63;6189718;23;20498;-88
2023/03/31 11:38:53;;;;;;;5.57;1.10;;;;;;;16.84;100.00;94724.78;6184275;23;20017;-88
2023/03/31 11:41:40;;;;;;;5.95;1.23;;;;;;;15.91;100.00;94730.94;6160342;23;20048;-87
2023/03/31 11:44:13;;;;;;;7.45;1.27;;;;;;;16.38;100.00;94715.03;6183338;23;20027;-87
2023/03/31 11:47:01;;;;;;;5.80;1.15;;;;;;;16.30;100.00;94708.25;6183015;23;20076;-88
2023/03/31 11:49:37;;;;;;;4.05;1.00;;;;;;;15.89;100.00;94701.19;6182152;23;20019;-87
2023/03/31 11:52:13;;;;;;;7.47;1.60;;;;;;;15.92;100.00;94690.13;6181631;23;20021;-87
2023/03/31 11:54:42;;;;;;;5.65;1.33;;;;;;;15.37;100.00;94703.63;6181480;23;20013;-87
2023/03/31 11:57:16;;;;;;;6.22;1.67;;;;;;;14.91;100.00;94720.94;6181977;23;20009;-87
2023/03/31 11:59:53;;;;;;;6.72;1.70;;;;;;;14.38;100.00;94728.44;6207079;23;20013;-87
2023/03/31 12:02:38;;;;;;;6.18;1.15;;;;;;;13.98;100.00;94766.84;6207285;23;20067;-87
2023/03/31 12:05:09;;;;;;;5.57;0.93;;;;;;;11.61;100.00;94863.88;6182635;23;20099;-86
2023/03/31 12:07:43;;;;;;;7.60;1.90;;;;;;;8.19;100.00;94950.22;6206862;23;20027;-85
2023/03/31 12:10:22;;;;;;;6.70;0.80;;;;;;;8.21;100.00;94950.84;6158061;23;20021;-88
2023/03/31 12:13:06;;;;;;;2.17;0.47;;;;;;;8.25;100.00;94957.38;6181151;23;20021;-85
2023/03/31 12:15:45;;;;;;;3.50;0.80;;;;;;;8.31;100.00;94966.31;6157571;23;20345;-85
2023/03/31 12:18:21;;;;;;;4.63;1.20;;;;;;;8.37;100.00;94970.84;6207315;23;20016;-85
2023/03/31 12:20:51;;;;;;;1.87;0.40;;;;;;;8.50;100.00;94975.53;6182272;23;20037;-85
2023/03/31 12:23:21;;;;;;;2.23;0.50;;;;;;;8.37;100.00;94968.22;6181212;23;20020;-85
2023/03/31 12:26:11;;;;;;;4.17;0.40;;;;;;;8.59;100.00;94958.75;6181782;23;20087;-85
2023/03/31 12:28:41;;;;;;;3.23;0.50;;;;;;;8.72;100.00;94958.16;6157655;23;20431;-85
2023/03/31 12:31:15;;;;;;;3.67;0.50;;;;;;;8.88;100.00;94944.03;6182183;23;20021;-86
2023/03/31 12:34:07;;;;;;;1.80;0.30;;;;;;;8.62;100.00;94929.56;6209095;23;20021;-86
2023/03/31 12:37:14;;;;;;;3.17;0.50;;;;;;;8.89;100.00;94914.22;6186435;23;20024;-86
2023/03/31 12:40:29;;;;;;;1.47;0.40;;;;;;;9.24;100.00;94907.41;6193705;23;20100;-85
2023/03/31 12:43:17;;;;;;;1.00;0.30;;;;;;;9.39;100.00;94887.22;6166334;23;20024;-86
2023/03/31 12:45:49;;;;;;;2.17;0.50;;;;;;;10.48;100.00;94870.44;6192572;23;20021;-85
2023/03/31 12:48:30;;;;;;;2.40;0.57;;;;;;;11.61;100.00;94852.53;6161592;23;20449;-86
2023/03/31 12:51:30;;;;;;;1.87;0.93;;;;;;;11.84;100.00;94824.03;6157099;23;20028;-85
2023/03/31 12:54:43;;;;;;;1.60;0.30;;;;;;;12.43;100.00;94809.19;6157492;23;20354;-86
2023/03/31 12:57:09;;;;;;;0.93;0.30;;;;;;;12.13;100.00;94812.25;6216581;23;20037;-86
2023/03/31 12:59:43;;;;;;;1.53;0.40;;;;;;;12.56;100.00;94803.91;6156928;23;20075;-85
2023/03/31 13:02:13;;;;;;;2.20;0.43;;;;;;;12.64;100.00;94787.88;6183421;23;20013;-85
2023/03/31 13:04:43;;;;;;;2.67;0.70;;;;;;;13.20;100.00;94778.50;6158548;23;20657;-86
2023/03/31 13:07:27;;;;;;;1.70;0.30;;;;;;;13.00;100.00;94761.97;6208501;23;20024;-85
2023/03/31 13:10:25;;;;;;;1.70;0.50;;;;;;;13.28;100.00;94773.03;6158961;23;20047;-86
2023/03/31 13:13:04;;;;;;;2.30;0.40;;;;;;;12.19;100.00;94771.13;6142024;23;20035;-86
2023/03/31 13:15:31;;;;;;;2.27;0.67;;;;;;;11.75;100.00;94760.16;6181930;23;20020;-87
2023/03/31 13:17:59;;;;;;;4.23;1.07;;;;;;;11.93;100.00;94771.94;6181767;23;20005;-86
2023/03/31 13:20:39;;;;;;;5.03;1.43;;;;;;;12.68;100.00;94775.06;6181611;23;20017;-86
2023/03/31 13:23:05;;;;;;;4.53;0.60;;;;;;;12.88;100.00;94761.81;6180942;23;20020;-86
2023/03/31 13:25:47;;;;;;;2.87;0.47;;;;;;;13.35;100.00;94751.88;6155473;23;20021;-85
2023/03/31 13:28:16;;;;;;;1.70;0.43;;;;;;;13.49;100.00;94747.31;6156576;23;20063;-86
2023/03/31 13:30:52;;;;;;;3.50;0.60;;;;;;;13.84;100.00;94734.44;6181307;23;20013;-87
2023/03/31 13:33:35;;;;;;;1.67;0.40;;;;;;;14.56;100.00;94732.16;6155760;23;20100;-87
2023/03/31 13:36:16;;;;;;;4.15;0.60;;;;;;;14.13;100.00;94728.47;6181550;23;20048;-87
2023/03/31 13:38:57;;;;;;;1.03;0.40;;;;;;;14.08;100.00;94723.06;6156950;23;20067;-88
2023/03/31 13:41:41;;;;;;;4.50;1.10;;;;;;;14.54;100.00;94719.13;6169298;23;20065;-86
2023/03/31 13:44:16;;;;;;;6.20;2.10;;;;;;;14.79;100.00;94719.06;6200229;23;20025;-88
2023/03/31 13:47:16;;;;;;;5.97;3.13;;;;;;;14.72;100.00;94706.91;6164676;23;20045;-88
2023/03/31 13:50:12;;;;;;;5.53;1.63;;;;;;;14.48;100.00;94711.25;6207955;23;20012;-88
2023/03/31 13:53:05;;;;;;;3.80;0.75;;;;;;;14.08;100.00;94725.69;6155740;23;20063;-88
2023/03/31 13:55:56;;;;;;;3.55;0.77;;;;;;;13.54;100.00;94715.75;6181303;23;20012;-88
2023/03/31 13:58:37;;;;;;;4.07;1.27;;;;;;;13.21;100.00;94728.16;6156013;23;20025;-88
2023/03/31 14:01:34;;;;;;;4.87;1.10;;;;;;;12.97;100.00;94737.59;6156385;23;20024;-88
2023/03/31 14:04:28;;;;;;;5.70;1.40;;;;;;;12.56;100.00;94737.16;6155809;23;20076;-88
2023/03/31 14:07:01;;;;;;;7.50;0.90;;;;;;;12.20;100.00;94733.19;6157555;23;20124;-88
2023/03/31 14:09:37;;;;;;;4.65;0.77;;;;;;;11.95;100.00;94736.50;6157813;23;20019;-88
2023/03/31 14:15:19;;;;;;;6.90;1.30;;;;;;;11.89;100.00;94745.19;6181451;23;20052;-88
2023/03/31 14:17:48;;;;;;;3.43;0.90;;;;;;;11.82;100.00;94754.91;6182913;23;20016;-88
2023/03/31 14:20:19;;;;;;;3.47;0.90;;;;;;;11.68;100.00;94764.63;6183077;23;20017;-88
2023/03/31 14:23:05;;;;;;;4.67;1.10;;;;;;;11.77;100.00;94754.72;6158490;23;20428;-88
2023/03/31 14:25:58;;;;;;;5.73;2.27;;;;;;;11.83;100.00;94759.16;6219873;23;20005;-88
2023/03/31 14:28:40;;;;;;;4.50;1.20;;;;;;;11.93;100.00;94766.69;6188290;23;20017;-88
2023/03/31 14:31:34;;;;;;;5.30;1.17;;;;;;;11.66;100.00;94752.66;6180644;23;20427;-87
2023/03/31 14:34:13;;;;;;;4.73;2.00;;;;;;;11.30;100.00;94732.78;6182393;23;20096;-87
2023/03/31 14:36:59;;;;;;;5.67;1.20;;;;;;;10.95;100.00;94767.09;6156821;23;20036;-87
2023/03/31 14:39:32;;;;;;;3.07;0.80;;;;;;;11.01;100.00;94774.22;6182160;23;20040;-88
2023/03/31 14:42:41;;;;;;;5.95;1.40;;;;;;;10.91;100.00;94783.50;6205034;23;20441;-87
2023/03/31 14:45:23;;;;;;;5.40;1.30;;;;;;;10.34;100.00;94794.13;6156300;23;20020;-88
2023/03/31 14:48:01;;;;;;;8.37;2.40;;;;;;;10.59;100.00;94789.19;6181983;23;20430;-87
2023/03/31 14:50:34;;;;;;;3.33;0.80;;;;;;;10.48;100.00;94792.38;6184274;23;20040;-88
2023/03/31 14:53:03;;;;;;;4.72;0.70;;;;;;;10.51;100.00;94792.00;6181371;23;20047;-88
2023/03/31 14:55:32;;;;;;;2.67;0.47;;;;;;;10.27;100.00;94751.25;6206841;23;20013;-88
2023/03/31 14:58:00;;;;;;;2.53;0.50;;;;;;;10.02;100.00;94744.78;6182093;23;20445;-89
2023/03/31 15:00:46;;;;;;;2.33;0.60;;;;;;;10.34;100.00;94761.78;6181846;23;20021;-89
2023/03/31 15:03:14;;;;;;;2.40;0.63;;;;;;;10.64;100.00;94766.78;6158646;23;20079;-88
2023/03/31 15:05:47;;;;;;;2.63;0.63;;;;;;;10.68;100.00;94760.94;6156824;23;20013;-90
2023/03/31 15:08:22;;;;;;;3.17;0.60;;;;;;;10.65;100.00;94763.97;6184064;23;20020;-89
2023/03/31 15:10:52;;;;;;;3.47;0.50;;;;;;;10.53;100.00;94761.09;6184498;23;20023;-89
2023/03/31 15:13:24;;;;;;;3.23;1.00;;;;;;;10.36;100.00;94757.97;6207641;23;20013;-88
2023/03/31 15:16:21;;;;;;;2.20;0.90;;;;;;;10.44;100.00;94772.75;6179585;23;20496;-89
2023/03/31 15:18:47;;;;;;;3.80;1.00;;;;;;;10.64;100.00;94777.31;6160234;23;20017;-88
2023/03/31 15:21:22;;;;;;;2.63;0.70;;;;;;;10.87;100.00;94769.13;6179711;23;20025;-89
2023/03/31 15:23:54;;;;;;;1.47;0.70;;;;;;;10.93;100.00;94773.56;6181498;23;20013;-89
2023/03/31 15:26:27;;;;;;;2.30;0.60;;;;;;;11.13;100.00;94773.63;6206127;23;20016;-88